createdAt,value
2023-05-24T00:00:07.468Z,44.23
2023-05-24T00:01:07.495Z,44.22
2023-05-24T00:02:07.462Z,44.24
2023-05-24T00:03:07.617Z,44.23
2023-05-24T00:04:07.532Z,44.22
2023-05-24T00:05:07.592Z,44.20
2023-05-24T00:06:08.009Z,44.24
2023-05-24T00:07:07.504Z,44.23
2023-05-24T00:08:08.508Z,44.22
2023-05-24T00:09:07.516Z,44.20
2023-05-24T00:10:07.539Z,44.23
2023-05-24T00:11:07.529Z,44.19
2023-05-24T00:12:07.532Z,44.20
2023-05-24T00:13:07.551Z,44.23
2023-05-24T00:14:08.022Z,44.24
2023-05-24T00:15:07.545Z,44.21
2023-05-24T00:16:07.630Z,44.20
2023-05-24T00:17:07.558Z,44.20
2023-05-24T00:18:07.607Z,44.17
2023-05-24T00:19:07.643Z,44.22
2023-05-24T00:20:07.645Z,44.19
2023-05-24T00:21:07.568Z,44.22
2023-05-24T00:22:07.579Z,44.20
2023-05-24T00:23:07.574Z,44.21
2023-05-24T00:24:07.586Z,44.22
2023-05-24T00:25:07.650Z,44.20
2023-05-24T00:26:07.604Z,44.22
2023-05-24T00:27:07.619Z,44.22
2023-05-24T00:28:07.629Z,44.20
2023-05-24T00:29:07.750Z,44.24
2023-05-24T00:30:07.665Z,44.22
2023-05-24T00:31:07.664Z,44.24
2023-05-24T00:32:08.638Z,44.20
2023-05-24T00:33:07.734Z,44.19
2023-05-24T00:34:07.712Z,44.18
2023-05-24T00:35:07.695Z,44.19
2023-05-24T00:36:07.715Z,44.19
2023-05-24T00:37:07.722Z,44.20
2023-05-24T00:38:07.723Z,44.19
2023-05-24T00:39:07.721Z,44.18
2023-05-24T00:40:07.770Z,44.19
2023-05-24T00:41:07.733Z,44.20
2023-05-24T00:42:07.858Z,44.20
2023-05-24T00:43:07.763Z,44.18
2023-05-24T00:44:07.762Z,44.19
2023-05-24T00:45:07.757Z,44.18
2023-05-24T00:46:07.794Z,44.19
2023-05-24T00:47:07.785Z,44.18
2023-05-24T00:48:07.900Z,44.19
2023-05-24T00:49:07.790Z,44.16
2023-05-24T00:50:07.805Z,44.20
2023-05-24T00:51:07.833Z,44.17
2023-05-24T00:52:07.845Z,44.16
2023-05-24T00:53:08.529Z,44.15
2023-05-24T00:54:07.864Z,44.18
2023-05-24T00:55:07.864Z,44.17
2023-05-24T00:56:07.881Z,44.19
2023-05-24T00:57:08.017Z,44.15
2023-05-24T00:58:07.886Z,44.17
2023-05-24T00:59:07.886Z,44.18
2023-05-24T01:00:07.896Z,44.18
2023-05-24T01:01:07.964Z,44.17
2023-05-24T01:02:07.892Z,44.14
2023-05-24T01:03:08.016Z,44.17
2023-05-24T01:04:07.893Z,44.13
2023-05-24T01:05:07.980Z,44.14
2023-05-24T01:06:07.964Z,44.16
2023-05-24T01:07:07.917Z,44.16
2023-05-24T01:08:07.915Z,44.13
2023-05-24T01:09:07.911Z,44.14
2023-05-24T01:10:08.051Z,44.14
2023-05-24T01:11:08.041Z,44.16
2023-05-24T01:12:07.940Z,44.17
2023-05-24T01:13:07.936Z,44.15
2023-05-24T01:14:07.940Z,44.15
2023-05-24T01:15:07.950Z,44.15
2023-05-24T01:16:08.036Z,44.15
2023-05-24T01:17:07.980Z,44.13
2023-05-24T01:18:08.133Z,44.13
2023-05-24T01:19:07.988Z,44.15
2023-05-24T01:20:08.003Z,44.13
2023-05-24T01:21:08.026Z,44.14
2023-05-24T01:22:08.908Z,44.14
2023-05-24T01:23:07.844Z,44.13
2023-05-24T01:24:07.774Z,44.13
2023-05-24T01:25:07.705Z,44.11
2023-05-24T01:26:07.643Z,44.10
2023-05-24T01:27:07.571Z,44.13
2023-05-24T01:28:08.041Z,44.11
2023-05-24T01:29:07.491Z,44.13
2023-05-24T01:30:07.501Z,44.11
2023-05-24T01:31:07.532Z,44.12
2023-05-24T01:32:07.498Z,44.11
2023-05-24T01:33:07.629Z,44.12
2023-05-24T01:34:07.534Z,44.12
2023-05-24T01:35:07.545Z,44.12
2023-05-24T01:36:07.536Z,44.13
2023-05-24T01:37:07.569Z,44.11
2023-05-24T01:38:07.577Z,44.08
2023-05-24T01:39:07.574Z,44.14
2023-05-24T01:40:08.054Z,44.10
2023-05-24T01:41:08.058Z,44.10
2023-05-24T01:42:07.569Z,44.12
2023-05-24T01:43:07.603Z,44.11
2023-05-24T01:44:07.579Z,44.10
2023-05-24T01:45:07.573Z,44.11
2023-05-24T01:46:07.557Z,44.10
2023-05-24T01:47:07.721Z,44.11
2023-05-24T01:48:07.578Z,44.12
2023-05-24T01:49:07.575Z,44.11
2023-05-24T01:50:07.571Z,44.12
2023-05-24T01:51:07.564Z,44.10
2023-05-24T01:52:07.589Z,44.11
2023-05-24T01:53:07.556Z,44.09
2023-05-24T01:54:07.553Z,44.13
2023-05-24T01:55:07.567Z,44.08
2023-05-24T01:56:07.567Z,44.09
2023-05-24T01:57:07.561Z,44.06
2023-05-24T01:58:07.548Z,44.09
2023-05-24T01:59:07.551Z,44.07
2023-05-24T02:00:07.560Z,44.10
2023-05-24T02:01:07.595Z,44.09
2023-05-24T02:02:07.585Z,44.09
2023-05-24T02:03:07.720Z,44.07
2023-05-24T02:04:07.533Z,44.08
2023-05-24T02:05:07.522Z,44.10
2023-05-24T02:06:07.517Z,44.07
2023-05-24T02:07:07.528Z,44.06
2023-05-24T02:08:07.520Z,44.07
2023-05-24T02:09:07.521Z,44.07
2023-05-24T02:10:07.519Z,44.08
2023-05-24T02:11:07.507Z,44.06
2023-05-24T02:12:07.493Z,44.07
2023-05-24T02:13:07.473Z,44.08
2023-05-24T02:14:07.453Z,44.07
2023-05-24T02:15:07.437Z,44.07
2023-05-24T02:16:07.415Z,44.06
2023-05-24T02:17:07.403Z,44.07
2023-05-24T02:18:07.459Z,44.06
2023-05-24T02:19:07.384Z,44.06
2023-05-24T02:20:07.392Z,44.09
2023-05-24T02:21:07.357Z,44.06
2023-05-24T02:22:07.366Z,44.06
2023-05-24T02:23:07.314Z,44.07
2023-05-24T02:24:07.287Z,44.07
2023-05-24T02:25:07.309Z,44.07
2023-05-24T02:26:07.276Z,44.05
2023-05-24T02:27:07.278Z,44.05
2023-05-24T02:28:07.371Z,44.06
2023-05-24T02:29:07.290Z,44.05
2023-05-24T02:30:07.279Z,44.05
2023-05-24T02:31:07.330Z,44.04
2023-05-24T02:32:07.288Z,44.04
2023-05-24T02:33:07.307Z,44.06
2023-05-24T02:34:07.283Z,44.06
2023-05-24T02:35:07.247Z,44.03
2023-05-24T02:36:07.233Z,44.04
2023-05-24T02:37:07.229Z,44.03
2023-05-24T02:38:07.225Z,44.03
2023-05-24T02:39:07.234Z,44.04
2023-05-24T02:40:07.223Z,44.02
2023-05-24T02:41:07.183Z,44.04
2023-05-24T02:42:07.173Z,44.05
2023-05-24T02:43:07.158Z,44.03
2023-05-24T02:44:07.188Z,44.05
2023-05-24T02:45:07.153Z,44.02
2023-05-24T02:46:07.150Z,44.02
2023-05-24T02:47:07.118Z,44.05
2023-05-24T02:48:07.187Z,44.03
2023-05-24T02:49:08.073Z,44.05
2023-05-24T02:50:07.077Z,44.05
2023-05-24T02:51:06.935Z,44.03
2023-05-24T02:52:06.880Z,44.05
2023-05-24T02:53:06.836Z,44.02
2023-05-24T02:54:06.757Z,44.05
2023-05-24T02:55:06.703Z,44.02
2023-05-24T02:56:06.648Z,44.01
2023-05-24T02:57:06.590Z,44.04
2023-05-24T02:58:06.564Z,44.03
2023-05-24T02:59:07.066Z,44.03
2023-05-24T03:00:06.557Z,44.02
2023-05-24T03:01:06.568Z,44.01
2023-05-24T03:02:06.756Z,43.98
2023-05-24T03:03:06.603Z,44.01
2023-05-24T03:04:06.624Z,44.01
2023-05-24T03:05:06.541Z,44.01
2023-05-24T03:06:06.543Z,44.00
2023-05-24T03:07:06.517Z,43.99
2023-05-24T03:08:06.489Z,43.99
2023-05-24T03:09:06.499Z,44.01
2023-05-24T03:10:06.485Z,44.02
2023-05-24T03:11:06.504Z,43.98
2023-05-24T03:12:06.493Z,44.00
2023-05-24T03:13:06.460Z,43.99
2023-05-24T03:14:07.089Z,44.02
2023-05-24T03:15:06.470Z,44.00
2023-05-24T03:16:06.507Z,43.99
2023-05-24T03:17:06.465Z,43.99
2023-05-24T03:18:06.507Z,44.00
2023-05-24T03:19:09.180Z,44.00
2023-05-24T03:20:06.452Z,44.00
2023-05-24T03:21:06.403Z,44.00
2023-05-24T03:22:06.316Z,43.98
2023-05-24T03:23:06.264Z,44.00
2023-05-24T03:24:06.215Z,44.00
2023-05-24T03:25:06.161Z,43.98
2023-05-24T03:26:06.122Z,44.00
2023-05-24T03:27:06.063Z,43.97
2023-05-24T03:28:06.050Z,43.99
2023-05-24T03:29:05.939Z,43.99
2023-05-24T03:30:05.968Z,43.97
2023-05-24T03:31:05.833Z,43.98
2023-05-24T03:32:05.862Z,43.98
2023-05-24T03:33:05.766Z,43.98
2023-05-24T03:34:05.660Z,43.98
2023-05-24T03:35:05.689Z,43.95
2023-05-24T03:36:05.555Z,43.97
2023-05-24T03:37:05.501Z,43.97
2023-05-24T03:38:05.451Z,43.98
2023-05-24T03:39:05.470Z,43.96
2023-05-24T03:40:05.453Z,43.95
2023-05-24T03:41:05.298Z,43.96
2023-05-24T03:42:05.213Z,43.97
2023-05-24T03:43:05.175Z,43.96
2023-05-24T03:44:05.119Z,43.97
2023-05-24T03:45:05.068Z,43.95
2023-05-24T03:46:05.071Z,43.96
2023-05-24T03:47:05.008Z,43.98
2023-05-24T03:48:04.938Z,43.95
2023-05-24T03:49:04.906Z,43.94
2023-05-24T03:50:04.825Z,43.95
2023-05-24T03:51:04.846Z,43.94
2023-05-24T03:52:04.720Z,43.97
2023-05-24T03:53:04.676Z,43.92
2023-05-24T03:54:04.612Z,43.95
2023-05-24T03:55:04.549Z,43.95
2023-05-24T03:56:04.505Z,43.96
2023-05-24T03:57:04.448Z,43.95
2023-05-24T03:58:04.370Z,43.94
2023-05-24T03:59:04.330Z,43.95
2023-05-24T04:00:04.284Z,43.95
2023-05-24T04:01:04.344Z,43.95
2023-05-24T04:02:04.289Z,43.96
2023-05-24T04:03:04.310Z,43.97
2023-05-24T04:04:04.300Z,43.99
2023-05-24T04:05:04.317Z,43.96
2023-05-24T04:06:04.218Z,43.93
2023-05-24T04:07:04.235Z,43.93
2023-05-24T04:08:04.198Z,43.96
2023-05-24T04:09:04.200Z,43.96
2023-05-24T04:10:04.187Z,43.96
2023-05-24T04:11:04.181Z,43.95
2023-05-24T04:12:04.601Z,43.96
2023-05-24T04:13:04.186Z,43.93
2023-05-24T04:14:04.159Z,43.94
2023-05-24T04:15:04.142Z,43.91
2023-05-24T04:16:04.131Z,43.94
2023-05-24T04:17:04.239Z,43.93
2023-05-24T04:18:04.164Z,43.94
2023-05-24T04:19:04.264Z,43.94
2023-05-24T04:20:04.136Z,43.95
2023-05-24T04:21:04.598Z,43.96
2023-05-24T04:22:04.119Z,43.93
2023-05-24T04:23:04.138Z,43.91
2023-05-24T04:24:04.114Z,43.95
2023-05-24T04:25:04.149Z,43.94
2023-05-24T04:26:04.104Z,43.93
2023-05-24T04:27:04.105Z,43.94
2023-05-24T04:28:04.102Z,43.93
2023-05-24T04:29:04.600Z,43.93
2023-05-24T04:30:04.604Z,43.92
2023-05-24T04:31:04.094Z,43.94
2023-05-24T04:32:04.074Z,43.92
2023-05-24T04:33:04.233Z,43.92
2023-05-24T04:34:04.062Z,43.92
2023-05-24T04:35:04.048Z,43.92
2023-05-24T04:36:04.053Z,43.91
2023-05-24T04:37:04.607Z,43.91
2023-05-24T04:38:04.604Z,43.92
2023-05-24T04:39:04.019Z,43.91
2023-05-24T04:40:04.005Z,43.92
2023-05-24T04:41:03.982Z,43.90
2023-05-24T04:42:04.611Z,43.91
2023-05-24T04:43:03.960Z,43.91
2023-05-24T04:44:03.943Z,43.94
2023-05-24T04:45:03.941Z,43.94
2023-05-24T04:46:03.951Z,43.91
2023-05-24T04:47:04.714Z,43.90
2023-05-24T04:48:03.960Z,43.91
2023-05-24T04:49:03.880Z,43.92
2023-05-24T04:50:03.870Z,43.90
2023-05-24T04:51:03.864Z,43.91
2023-05-24T04:52:03.873Z,43.92
2023-05-24T04:53:03.851Z,43.90
2023-05-24T04:54:04.551Z,43.89
2023-05-24T04:55:03.858Z,43.89
2023-05-24T04:56:03.819Z,43.88
2023-05-24T04:57:03.839Z,43.87
2023-05-24T04:58:03.812Z,43.89
2023-05-24T04:59:03.791Z,43.92
2023-05-24T05:00:03.793Z,43.91
2023-05-24T05:01:03.773Z,43.90
2023-05-24T05:02:03.836Z,43.88
2023-05-24T05:03:03.934Z,43.87
2023-05-24T05:04:03.783Z,43.88
2023-05-24T05:05:03.743Z,43.89
2023-05-24T05:06:03.699Z,43.87
2023-05-24T05:07:03.721Z,43.89
2023-05-24T05:08:03.810Z,43.88
2023-05-24T05:09:03.675Z,43.88
2023-05-24T05:10:03.685Z,43.87
2023-05-24T05:11:03.680Z,43.85
2023-05-24T05:12:03.678Z,43.85
2023-05-24T05:13:03.668Z,43.86
2023-05-24T05:14:03.704Z,43.86
2023-05-24T05:15:03.666Z,43.87
2023-05-24T05:16:03.683Z,43.84
2023-05-24T05:17:03.652Z,43.86
2023-05-24T05:18:03.694Z,43.86
2023-05-24T05:19:03.750Z,43.85
2023-05-24T05:20:03.689Z,43.87
2023-05-24T05:21:03.689Z,43.95
2023-05-24T05:22:03.646Z,44.01
2023-05-24T05:23:03.666Z,44.18
2023-05-24T05:24:04.631Z,44.07
2023-05-24T05:25:03.686Z,46.50
2023-05-24T05:26:03.668Z,46.39
2023-05-24T05:27:03.622Z,45.71
2023-05-24T05:28:03.628Z,45.13
2023-05-24T05:29:03.652Z,45.34
2023-05-24T05:30:03.645Z,45.29
2023-05-24T05:31:03.645Z,45.10
2023-05-24T05:32:03.689Z,45.12
2023-05-24T05:33:03.750Z,45.22
2023-05-24T05:34:04.122Z,45.14
2023-05-24T05:35:03.656Z,45.25
2023-05-24T05:36:03.677Z,45.23
2023-05-24T05:37:03.671Z,45.22
2023-05-24T05:38:03.686Z,45.27
2023-05-24T05:39:03.668Z,45.27
2023-05-24T05:40:03.686Z,45.26
2023-05-24T05:41:03.709Z,45.28
2023-05-24T05:42:03.707Z,45.27
2023-05-24T05:43:03.735Z,45.27
2023-05-24T05:44:03.744Z,45.29
2023-05-24T05:45:03.746Z,45.27
2023-05-24T05:46:03.738Z,45.30
2023-05-24T05:47:03.728Z,45.29
2023-05-24T05:48:03.758Z,45.31
2023-05-24T05:49:03.733Z,45.32
2023-05-24T05:50:03.696Z,45.30
2023-05-24T05:51:03.767Z,45.31
2023-05-24T05:52:03.712Z,45.34
2023-05-24T05:53:04.626Z,45.34
2023-05-24T05:54:03.667Z,45.31
2023-05-24T05:55:03.683Z,45.33
2023-05-24T05:56:03.672Z,45.32
2023-05-24T05:57:03.681Z,45.30
2023-05-24T05:58:03.680Z,45.31
2023-05-24T05:59:03.651Z,45.28
2023-05-24T06:00:03.642Z,45.27
2023-05-24T06:01:03.645Z,45.31
2023-05-24T06:02:03.619Z,45.29
2023-05-24T06:03:03.685Z,45.29
2023-05-24T06:04:03.679Z,45.27
2023-05-24T06:05:03.592Z,45.28
2023-05-24T06:06:03.574Z,45.25
2023-05-24T06:07:03.559Z,45.27
2023-05-24T06:08:03.591Z,45.27
2023-05-24T06:09:03.516Z,45.26
2023-05-24T06:10:04.456Z,45.28
2023-05-24T06:11:03.489Z,45.25
2023-05-24T06:12:03.390Z,45.28
2023-05-24T06:13:03.266Z,45.26
2023-05-24T06:14:03.217Z,45.27
2023-05-24T06:15:03.140Z,45.22
2023-05-24T06:16:03.109Z,45.21
2023-05-24T06:17:03.101Z,45.23
2023-05-24T06:18:03.126Z,45.23
2023-05-24T06:19:06.370Z,45.20
2023-05-24T06:20:02.962Z,45.22
2023-05-24T06:21:02.802Z,45.18
2023-05-24T06:22:02.718Z,45.21
2023-05-24T06:23:02.669Z,45.31
2023-05-24T06:24:02.767Z,46.20
2023-05-24T06:25:02.549Z,46.51
2023-05-24T06:26:02.716Z,46.93
2023-05-24T06:27:05.158Z,47.07
2023-05-24T06:28:03.465Z,47.28
2023-05-24T06:29:02.636Z,47.44
2023-05-24T06:30:03.706Z,47.85
2023-05-24T06:31:02.395Z,48.56
2023-05-24T06:32:03.147Z,48.50
2023-05-24T06:33:02.300Z,48.76
2023-05-24T06:34:04.683Z,48.94
2023-05-24T06:35:02.101Z,49.09
2023-05-24T06:36:02.415Z,49.14
2023-05-24T06:37:02.018Z,49.09
2023-05-24T06:38:01.973Z,49.20
2023-05-24T06:39:01.923Z,49.16
2023-05-24T06:40:01.896Z,49.09
2023-05-24T06:41:01.830Z,49.28
2023-05-24T06:42:02.161Z,49.24
2023-05-24T06:43:01.765Z,49.18
2023-05-24T06:44:01.766Z,49.10
2023-05-24T06:45:01.672Z,48.93
2023-05-24T06:46:01.643Z,49.04
2023-05-24T06:47:01.722Z,48.87
2023-05-24T06:48:01.742Z,48.74
2023-05-24T06:49:01.588Z,48.78
2023-05-24T06:50:01.476Z,48.80
2023-05-24T06:51:01.429Z,48.62
2023-05-24T06:52:01.433Z,48.86
2023-05-24T06:53:01.387Z,49.10
2023-05-24T06:54:01.310Z,49.05
2023-05-24T06:55:01.263Z,49.07
2023-05-24T06:56:01.235Z,49.13
2023-05-24T06:57:01.200Z,48.91
2023-05-24T06:58:01.364Z,48.83
2023-05-24T06:59:01.096Z,48.79
2023-05-24T07:00:01.668Z,48.78
2023-05-24T07:01:01.023Z,48.73
2023-05-24T07:02:03.672Z,48.68
2023-05-24T07:03:00.986Z,48.70
2023-05-24T07:04:00.986Z,48.73
2023-05-24T07:05:00.925Z,48.99
2023-05-24T07:06:01.025Z,49.06
2023-05-24T07:07:00.758Z,49.02
2023-05-24T07:08:00.973Z,48.95
2023-05-24T07:09:01.338Z,49.30
2023-05-24T07:10:00.542Z,49.16
2023-05-24T07:11:00.493Z,49.24
2023-05-24T07:12:00.399Z,49.30
2023-05-24T07:13:00.331Z,49.37
2023-05-24T07:14:01.797Z,49.33
2023-05-24T07:15:00.208Z,49.22
2023-05-24T07:16:00.190Z,49.59
2023-05-24T07:17:00.311Z,50.00
2023-05-24T07:18:00.680Z,49.65
2023-05-24T07:19:01.321Z,49.48
2023-05-24T07:20:00.045Z,50.01
2023-05-24T07:20:59.827Z,50.06
2023-05-24T07:21:59.764Z,49.98
2023-05-24T07:22:59.690Z,49.85
2023-05-24T07:23:59.613Z,49.67
2023-05-24T07:24:59.618Z,49.69
2023-05-24T07:25:59.505Z,49.61
2023-05-24T07:26:59.470Z,49.62
2023-05-24T07:27:59.305Z,49.66
2023-05-24T07:28:59.386Z,49.74
2023-05-24T07:29:59.154Z,49.73
2023-05-24T07:30:59.167Z,49.79
2023-05-24T07:31:59.075Z,49.82
2023-05-24T07:32:58.973Z,49.85
2023-05-24T07:33:59.623Z,49.91
2023-05-24T07:34:58.784Z,50.03
2023-05-24T07:35:58.753Z,50.16
2023-05-24T07:36:59.253Z,50.18
2023-05-24T07:37:58.686Z,50.26
2023-05-24T07:38:58.738Z,50.35
2023-05-24T07:39:58.493Z,50.46
2023-05-24T07:40:58.361Z,50.51
2023-05-24T07:41:58.302Z,50.63
2023-05-24T07:42:58.212Z,50.67
2023-05-24T07:43:58.119Z,50.79
2023-05-24T07:44:58.038Z,50.88
2023-05-24T07:45:57.991Z,50.96
2023-05-24T07:46:57.956Z,50.99
2023-05-24T07:47:57.892Z,51.14
2023-05-24T07:48:57.896Z,51.24
2023-05-24T07:49:57.741Z,51.26
2023-05-24T07:50:57.573Z,51.38
2023-05-24T07:51:57.551Z,51.45
2023-05-24T07:52:57.423Z,51.52
2023-05-24T07:53:57.494Z,51.59
2023-05-24T07:54:57.263Z,51.73
2023-05-24T07:55:57.167Z,51.79
2023-05-24T07:56:57.155Z,51.82
2023-05-24T07:57:56.999Z,51.91
2023-05-24T07:58:57.003Z,51.98
2023-05-24T07:59:56.881Z,52.03
2023-05-24T08:00:57.025Z,52.04
2023-05-24T08:01:56.697Z,52.13
2023-05-24T08:02:56.761Z,52.22
2023-05-24T08:03:56.665Z,52.34
2023-05-24T08:04:56.458Z,52.45
2023-05-24T08:05:56.601Z,52.52
2023-05-24T08:06:56.497Z,52.64
2023-05-24T08:07:56.224Z,52.63
2023-05-24T08:08:56.260Z,52.77
2023-05-24T08:09:56.132Z,52.90
2023-05-24T08:10:56.077Z,52.98
2023-05-24T08:11:56.724Z,53.17
2023-05-24T08:12:56.000Z,53.20
2023-05-24T08:13:55.961Z,53.53
2023-05-24T08:14:55.931Z,53.50
2023-05-24T08:15:55.931Z,52.76
2023-05-24T08:16:55.975Z,52.11
2023-05-24T08:17:56.705Z,52.35
2023-05-24T08:18:55.831Z,52.40
2023-05-24T08:19:55.837Z,52.28
2023-05-24T08:20:55.782Z,52.06
2023-05-24T08:21:55.773Z,52.00
2023-05-24T08:22:55.851Z,51.56
2023-05-24T08:23:57.420Z,50.86
2023-05-24T08:24:56.397Z,50.58
2023-05-24T08:25:55.741Z,51.02
2023-05-24T08:26:55.716Z,50.08
2023-05-24T08:27:55.725Z,48.71
2023-05-24T08:28:55.607Z,48.26
2023-05-24T08:29:57.003Z,47.17
2023-05-24T08:30:55.620Z,47.54
2023-05-24T08:31:55.649Z,47.76
2023-05-24T08:32:55.645Z,47.99
2023-05-24T08:33:55.643Z,47.79
2023-05-24T08:35:03.502Z,47.17
2023-05-24T08:35:56.631Z,47.15
2023-05-24T08:36:55.618Z,47.12
2023-05-24T08:37:55.505Z,47.33
2023-05-24T08:38:55.421Z,47.16
2023-05-24T08:39:56.192Z,46.87
2023-05-24T08:40:55.717Z,46.83
2023-05-24T08:42:08.588Z,46.56
2023-05-24T08:42:56.217Z,46.69
2023-05-24T08:43:55.221Z,46.76
2023-05-24T08:44:55.107Z,46.81
2023-05-24T08:45:55.114Z,46.90
2023-05-24T08:46:55.355Z,47.00
2023-05-24T08:47:55.037Z,47.24
2023-05-24T08:48:54.960Z,47.68
2023-05-24T08:49:54.827Z,47.47
2023-05-24T08:50:55.208Z,47.72
2023-05-24T08:51:55.201Z,47.61
2023-05-24T08:52:54.630Z,47.98
2023-05-24T08:53:54.588Z,47.79
2023-05-24T08:54:54.570Z,47.91
2023-05-24T08:55:54.514Z,47.97
2023-05-24T08:56:54.477Z,47.97
2023-05-24T08:57:55.267Z,48.07
2023-05-24T08:58:54.450Z,47.91
2023-05-24T08:59:54.420Z,47.87
2023-05-24T09:00:54.421Z,48.04
2023-05-24T09:01:54.300Z,48.11
2023-05-24T09:02:54.254Z,48.06
2023-05-24T09:03:54.201Z,48.09
2023-05-24T09:04:54.132Z,48.05
2023-05-24T09:05:54.079Z,47.96
2023-05-24T09:06:53.989Z,47.92
2023-05-24T09:07:53.934Z,48.02
2023-05-24T09:08:53.873Z,48.12
2023-05-24T09:09:54.707Z,48.13
2023-05-24T09:10:55.818Z,47.41
2023-05-24T09:11:53.717Z,47.30
2023-05-24T09:12:53.656Z,46.92
2023-05-24T09:13:53.606Z,47.40
2023-05-24T09:14:53.551Z,47.11
2023-05-24T09:15:53.837Z,47.58
2023-05-24T09:16:53.452Z,47.65
2023-05-24T09:17:53.426Z,47.55
2023-05-24T09:18:53.339Z,47.64
2023-05-24T09:19:53.310Z,47.72
2023-05-24T09:20:53.519Z,47.74
2023-05-24T09:21:53.174Z,47.62
2023-05-24T09:22:53.713Z,47.58
2023-05-24T09:23:53.089Z,47.54
2023-05-24T09:24:52.964Z,47.50
2023-05-24T09:25:52.938Z,47.48
2023-05-24T09:26:52.845Z,47.49
2023-05-24T09:27:52.801Z,47.47
2023-05-24T09:28:52.688Z,47.47
2023-05-24T09:29:52.668Z,47.45
2023-05-24T09:30:52.667Z,47.51
2023-05-24T09:31:53.340Z,47.52
2023-05-24T09:32:52.507Z,47.48
2023-05-24T09:33:52.420Z,47.49
2023-05-24T09:34:52.341Z,47.47
2023-05-24T09:35:52.300Z,47.46
2023-05-24T09:36:52.243Z,47.50
2023-05-24T09:37:54.717Z,47.52
2023-05-24T09:38:52.247Z,47.51
2023-05-24T09:39:52.270Z,47.48
2023-05-24T09:40:52.163Z,47.48
2023-05-24T09:41:52.102Z,47.54
2023-05-24T09:42:52.042Z,47.56
2023-05-24T09:43:52.005Z,47.55
2023-05-24T09:44:52.030Z,47.51
2023-05-24T09:45:51.897Z,47.53
2023-05-24T09:46:51.881Z,47.58
2023-05-24T09:47:51.857Z,47.58
2023-05-24T09:48:52.685Z,47.64
2023-05-24T09:49:51.734Z,47.57
2023-05-24T09:50:51.683Z,47.59
2023-05-24T09:51:51.796Z,47.54
2023-05-24T09:52:51.618Z,47.55
2023-05-24T09:53:51.576Z,47.50
2023-05-24T09:54:51.585Z,47.51
2023-05-24T09:55:51.581Z,47.49
2023-05-24T09:56:51.499Z,47.51
2023-05-24T09:57:51.547Z,47.52
2023-05-24T09:58:51.612Z,47.53
2023-05-24T09:59:51.336Z,47.61
2023-05-24T10:00:51.334Z,47.63
2023-05-24T10:01:51.399Z,47.64
2023-05-24T10:02:53.899Z,47.58
2023-05-24T10:03:51.238Z,47.61
2023-05-24T10:04:51.272Z,47.65
2023-05-24T10:05:51.076Z,47.69
2023-05-24T10:06:51.178Z,47.68
2023-05-24T10:07:51.033Z,47.74
2023-05-24T10:08:50.924Z,47.72
2023-05-24T10:09:50.836Z,47.74
2023-05-24T10:10:50.791Z,47.70
2023-05-24T10:11:50.735Z,47.72
2023-05-24T10:12:50.683Z,47.68
2023-05-24T10:13:50.618Z,47.72
2023-05-24T10:14:50.529Z,47.70
2023-05-24T10:15:50.486Z,47.72
2023-05-24T10:16:50.440Z,47.74
2023-05-24T10:17:50.408Z,47.63
2023-05-24T10:18:51.819Z,47.65
2023-05-24T10:19:50.318Z,47.66
2023-05-24T10:20:50.693Z,47.72
2023-05-24T10:21:50.141Z,47.66
2023-05-24T10:22:50.081Z,47.64
2023-05-24T10:23:49.998Z,47.61
2023-05-24T10:24:49.916Z,47.61
2023-05-24T10:25:50.239Z,47.61
2023-05-24T10:26:49.791Z,47.59
2023-05-24T10:27:49.731Z,47.63
2023-05-24T10:28:49.666Z,47.60
2023-05-24T10:29:49.592Z,47.61
2023-05-24T10:30:49.650Z,47.62
2023-05-24T10:31:49.581Z,47.60
2023-05-24T10:32:49.470Z,47.57
2023-05-24T10:33:49.356Z,47.62
2023-05-24T10:34:49.414Z,47.60
2023-05-24T10:35:49.224Z,47.53
2023-05-24T10:36:49.198Z,47.58
2023-05-24T10:37:49.744Z,47.54
2023-05-24T10:38:49.056Z,47.54
2023-05-24T10:39:48.987Z,47.55
2023-05-24T10:40:49.023Z,47.53
2023-05-24T10:41:48.912Z,47.52
2023-05-24T10:42:48.915Z,47.51
2023-05-24T10:44:00.954Z,47.47
2023-05-24T10:44:49.833Z,47.49
2023-05-24T10:45:48.870Z,47.46
2023-05-24T10:46:48.756Z,47.47
2023-05-24T10:47:48.676Z,47.47
2023-05-24T10:48:48.599Z,47.42
2023-05-24T10:49:48.533Z,47.41
2023-05-24T10:50:48.463Z,47.42
2023-05-24T10:51:48.403Z,47.38
2023-05-24T10:52:48.382Z,47.40
2023-05-24T10:53:48.380Z,47.39
2023-05-24T10:55:02.841Z,47.38
2023-05-24T10:55:49.151Z,47.42
2023-05-24T10:56:48.099Z,47.38
2023-05-24T10:57:48.104Z,47.39
2023-05-24T10:58:47.979Z,47.40
2023-05-24T10:59:47.923Z,47.36
2023-05-24T11:00:47.953Z,47.34
2023-05-24T11:01:47.834Z,47.33
2023-05-24T11:02:47.796Z,47.38
2023-05-24T11:03:47.710Z,47.31
2023-05-24T11:04:47.623Z,47.34
2023-05-24T11:05:47.699Z,47.28
2023-05-24T11:06:47.522Z,47.26
2023-05-24T11:07:47.869Z,47.26
2023-05-24T11:08:47.444Z,47.22
2023-05-24T11:09:47.330Z,47.25
2023-05-24T11:10:47.287Z,47.20
2023-05-24T11:11:47.218Z,47.24
2023-05-24T11:12:47.181Z,47.22
2023-05-24T11:13:47.150Z,47.23
2023-05-24T11:14:47.125Z,47.20
2023-05-24T11:15:47.125Z,47.19
2023-05-24T11:16:47.110Z,47.18
2023-05-24T11:17:47.124Z,47.17
2023-05-24T11:18:47.011Z,47.14
2023-05-24T11:19:46.987Z,47.16
2023-05-24T11:20:47.300Z,47.11
2023-05-24T11:21:46.960Z,47.18
2023-05-24T11:22:46.928Z,47.09
2023-05-24T11:23:46.960Z,47.09
2023-05-24T11:24:46.876Z,47.08
2023-05-24T11:25:46.846Z,47.11
2023-05-24T11:26:46.816Z,47.11
2023-05-24T11:27:46.806Z,47.10
2023-05-24T11:28:46.772Z,47.11
2023-05-24T11:29:46.767Z,47.08
2023-05-24T11:30:47.256Z,47.08
2023-05-24T11:31:47.827Z,47.09
2023-05-24T11:32:47.304Z,47.10
2023-05-24T11:33:46.599Z,47.11
2023-05-24T11:34:46.562Z,47.09
2023-05-24T11:35:46.512Z,47.10
2023-05-24T11:36:46.492Z,47.04
2023-05-24T11:37:47.039Z,47.07
2023-05-24T11:38:46.471Z,47.05
2023-05-24T11:39:46.442Z,47.08
2023-05-24T11:40:46.428Z,47.05
2023-05-24T11:41:46.464Z,47.03
2023-05-24T11:42:47.263Z,47.02
2023-05-24T11:43:46.366Z,47.05
2023-05-24T11:44:46.364Z,47.05
2023-05-24T11:45:46.366Z,47.04
2023-05-24T11:46:46.322Z,47.02
2023-05-24T11:47:46.342Z,47.01
2023-05-24T11:48:46.281Z,47.01
2023-05-24T11:49:46.280Z,47.02
2023-05-24T11:50:49.721Z,46.97
2023-05-24T11:51:46.194Z,47.01
2023-05-24T11:52:46.145Z,47.03
2023-05-24T11:53:46.069Z,47.02
2023-05-24T11:54:46.097Z,47.01
2023-05-24T11:55:46.784Z,47.01
2023-05-24T11:56:46.001Z,47.02
2023-05-24T11:57:45.907Z,46.94
2023-05-24T11:58:45.790Z,46.97
2023-05-24T11:59:45.747Z,46.96
2023-05-24T12:00:45.677Z,46.96
2023-05-24T12:01:45.626Z,46.99
2023-05-24T12:02:45.654Z,46.96
2023-05-24T12:03:45.622Z,46.92
2023-05-24T12:04:45.436Z,46.93
2023-05-24T12:05:45.368Z,46.95
2023-05-24T12:06:45.305Z,46.96
2023-05-24T12:07:45.293Z,46.91
2023-05-24T12:08:45.193Z,46.94
2023-05-24T12:09:45.143Z,46.93
2023-05-24T12:10:45.275Z,46.92
2023-05-24T12:11:45.015Z,46.92
2023-05-24T12:12:46.284Z,46.94
2023-05-24T12:13:44.899Z,46.92
2023-05-24T12:14:44.893Z,46.95
2023-05-24T12:15:44.856Z,46.87
2023-05-24T12:16:44.787Z,46.91
2023-05-24T12:17:44.756Z,46.90
2023-05-24T12:18:55.029Z,46.91
2023-05-24T12:19:45.577Z,46.91
2023-05-24T12:20:44.736Z,46.95
2023-05-24T12:21:44.788Z,46.88
2023-05-24T12:22:44.376Z,46.89
2023-05-24T12:23:45.287Z,46.88
2023-05-24T12:24:44.367Z,46.90
2023-05-24T12:25:44.212Z,46.87
2023-05-24T12:26:44.156Z,46.91
2023-05-24T12:27:44.104Z,46.89
2023-05-24T12:28:44.781Z,46.88
2023-05-24T12:29:43.976Z,46.85
2023-05-24T12:30:44.126Z,46.88
2023-05-24T12:31:43.913Z,46.82
2023-05-24T12:32:43.910Z,46.82
2023-05-24T12:33:43.849Z,46.82
2023-05-24T12:34:44.018Z,46.85
2023-05-24T12:35:43.855Z,46.82
2023-05-24T12:36:43.858Z,46.82
2023-05-24T12:37:43.929Z,46.79
2023-05-24T12:38:43.889Z,46.80
2023-05-24T12:39:44.939Z,46.76
2023-05-24T12:40:43.996Z,46.78
2023-05-24T12:41:43.816Z,46.78
2023-05-24T12:42:43.817Z,46.77
2023-05-24T12:43:43.797Z,46.75
2023-05-24T12:44:43.875Z,46.75
2023-05-24T12:45:43.792Z,46.75
2023-05-24T12:46:43.798Z,46.73
2023-05-24T12:47:43.795Z,46.75
2023-05-24T12:48:43.768Z,46.75
2023-05-24T12:49:43.737Z,46.73
2023-05-24T12:50:44.006Z,46.70
2023-05-24T12:51:43.746Z,46.70